createdAt,value
2023-03-26T00:02:08.116Z,18.63
2023-03-26T00:04:36.580Z,19.33
2023-03-26T00:07:06.244Z,17.47
2023-03-26T00:09:34.450Z,18.63
2023-03-26T00:12:02.810Z,15.40
2023-03-26T00:14:32.515Z,25.10
2023-03-26T00:17:00.746Z,20.87
2023-03-26T00:19:30.132Z,19.03
2023-03-26T00:21:58.398Z,14.40
2023-03-26T00:24:29.680Z,16.33
2023-03-26T00:26:58.032Z,16.80
2023-03-26T00:29:27.932Z,20.93
2023-03-26T00:31:56.258Z,18.30
2023-03-26T00:34:24.812Z,16.77
2023-03-26T00:36:54.632Z,20.80
2023-03-26T00:39:24.385Z,15.47
2023-03-26T00:41:54.375Z,17.70
2023-03-26T00:44:23.183Z,25.00
2023-03-26T00:46:51.515Z,23.60
2023-03-26T00:49:19.936Z,15.53
2023-03-26T00:51:48.293Z,24.10
2023-03-26T00:54:17.356Z,15.20
2023-03-26T00:56:45.706Z,20.80
2023-03-26T00:59:15.653Z,15.93
2023-03-26T01:01:44.578Z,18.70
2023-03-26T01:04:27.381Z,12.73
2023-03-26T01:06:56.839Z,17.93
2023-03-26T01:09:33.649Z,16.50
2023-03-26T01:12:04.614Z,10.67
2023-03-26T01:14:34.513Z,10.63
2023-03-26T01:17:07.019Z,8.97
2023-03-26T01:19:48.594Z,12.10
2023-03-26T01:22:20.750Z,10.27
2023-03-26T01:24:56.152Z,10.47
2023-03-26T01:27:33.917Z,6.37
2023-03-26T01:30:13.693Z,13.97
2023-03-26T01:32:57.674Z,12.30
2023-03-26T01:35:41.282Z,12.03
2023-03-26T01:38:27.753Z,13.43
2023-03-26T01:41:09.149Z,11.83
2023-03-26T01:43:46.720Z,12.47
2023-03-26T01:46:16.970Z,15.40
2023-03-26T01:48:47.953Z,17.63
2023-03-26T01:51:29.702Z,15.77
2023-03-26T01:54:00.412Z,13.73
2023-03-26T01:56:39.291Z,20.33
2023-03-26T01:59:28.887Z,12.40
2023-03-26T02:02:05.745Z,15.20
2023-03-26T02:04:44.004Z,20.07
2023-03-26T02:07:22.184Z,12.40
2023-03-26T02:09:56.977Z,19.67
2023-03-26T02:12:29.090Z,21.63
2023-03-26T02:15:00.110Z,15.80
2023-03-26T02:17:30.069Z,16.77
2023-03-26T02:19:58.518Z,15.03
2023-03-26T02:22:29.724Z,21.20
2023-03-26T02:24:59.284Z,19.80
2023-03-26T02:27:29.033Z,13.27
2023-03-26T02:29:57.461Z,18.73
2023-03-26T02:32:27.291Z,19.60
2023-03-26T02:34:57.179Z,14.80
2023-03-26T02:37:25.999Z,17.63
2023-03-26T02:40:05.454Z,24.83
2023-03-26T02:42:35.281Z,16.47
2023-03-26T02:45:03.926Z,16.83
2023-03-26T02:47:51.001Z,20.70
2023-03-26T02:50:39.941Z,16.10
2023-03-26T02:53:41.214Z,14.43
2023-03-26T02:56:45.032Z,9.13
2023-03-26T02:59:33.720Z,11.30
2023-03-26T03:02:22.829Z,10.97
2023-03-26T03:04:51.471Z,9.47
2023-03-26T03:07:20.289Z,12.60
2023-03-26T03:09:50.611Z,7.97
2023-03-26T03:12:42.564Z,4.60
2023-03-26T03:15:13.863Z,9.60
2023-03-26T03:17:42.534Z,9.10
2023-03-26T03:20:12.135Z,12.27
2023-03-26T03:22:41.156Z,11.67
2023-03-26T03:25:14.254Z,14.83
2023-03-26T03:27:43.118Z,8.30
2023-03-26T03:30:16.137Z,10.50
2023-03-26T03:32:47.561Z,11.90
2023-03-26T03:35:20.806Z,9.97
2023-03-26T03:37:52.933Z,11.60
2023-03-26T03:40:21.211Z,8.57
2023-03-26T03:42:49.842Z,16.77
2023-03-26T03:45:29.545Z,11.50
2023-03-26T03:48:18.819Z,20.17
2023-03-26T03:50:48.707Z,13.13
2023-03-26T03:53:28.809Z,10.07
2023-03-26T03:56:02.022Z,12.47
2023-03-26T03:58:59.532Z,13.63
2023-03-26T04:01:35.326Z,13.23
2023-03-26T04:04:08.916Z,16.97
2023-03-26T04:07:07.043Z,15.93
2023-03-26T04:09:47.271Z,18.83
2023-03-26T04:12:19.300Z,13.70
2023-03-26T04:14:55.741Z,12.80
2023-03-26T04:17:26.067Z,23.67
2023-03-26T04:19:57.068Z,16.37
2023-03-26T04:22:34.556Z,15.23
2023-03-26T04:25:06.026Z,21.10
2023-03-26T04:27:44.507Z,13.53
2023-03-26T04:30:42.257Z,17.33
2023-03-26T04:33:29.569Z,14.63
2023-03-26T04:36:02.721Z,15.03
2023-03-26T04:38:41.695Z,16.43
2023-03-26T04:41:13.952Z,12.90
2023-03-26T04:43:57.879Z,16.90
2023-03-26T04:46:37.974Z,11.53
2023-03-26T04:49:16.983Z,15.83
2023-03-26T04:51:46.954Z,9.07
2023-03-26T04:54:37.863Z,12.93
2023-03-26T04:57:20.465Z,16.43
2023-03-26T05:00:16.089Z,9.70
2023-03-26T05:02:49.999Z,14.57
2023-03-26T05:05:20.894Z,11.27
2023-03-26T05:07:50.757Z,11.37
2023-03-26T05:10:21.614Z,13.80
2023-03-26T05:12:54.335Z,11.53
2023-03-26T05:15:27.058Z,11.73
2023-03-26T05:18:08.770Z,8.67
2023-03-26T05:20:43.442Z,13.30
2023-03-26T05:23:12.403Z,8.07
2023-03-26T05:25:43.934Z,8.47
2023-03-26T05:28:19.241Z,11.63
2023-03-26T05:30:56.449Z,11.17
2023-03-26T05:33:27.460Z,11.33
2023-03-26T05:36:13.132Z,9.47
2023-03-26T05:38:47.219Z,11.90
2023-03-26T05:41:19.931Z,10.70
2023-03-26T05:43:51.074Z,17.27
2023-03-26T05:46:23.333Z,10.90
2023-03-26T05:48:52.580Z,11.37
2023-03-26T05:51:23.352Z,17.23
2023-03-26T05:54:10.040Z,4.43
2023-03-26T05:56:38.447Z,9.13
2023-03-26T05:59:13.064Z,9.50
2023-03-26T06:02:00.376Z,10.53
2023-03-26T06:04:51.432Z,10.17
2023-03-26T06:07:39.663Z,15.70
2023-03-26T06:10:18.082Z,11.30
2023-03-26T06:12:47.746Z,13.30
2023-03-26T06:15:16.555Z,12.18
2023-03-26T06:17:49.533Z,14.20
2023-03-26T06:20:54.101Z,14.93
2023-03-26T06:23:35.635Z,14.93
2023-03-26T06:26:29.686Z,18.87
2023-03-26T06:29:06.463Z,12.73
2023-03-26T06:32:16.304Z,9.97
2023-03-26T06:34:51.799Z,16.53
2023-03-26T06:37:20.124Z,12.80
2023-03-26T06:39:51.479Z,18.33
2023-03-26T06:42:21.965Z,10.07
2023-03-26T06:45:29.410Z,18.17
2023-03-26T06:48:16.554Z,13.03
2023-03-26T06:51:07.742Z,13.87
2023-03-26T06:54:14.804Z,16.47
2023-03-26T06:56:57.285Z,14.73
2023-03-26T06:59:44.226Z,11.97
2023-03-26T07:02:31.008Z,14.70
2023-03-26T07:05:17.949Z,10.40
2023-03-26T07:08:05.768Z,13.37
2023-03-26T07:11:06.974Z,15.47
2023-03-26T07:14:00.757Z,13.63
2023-03-26T07:16:58.888Z,14.50
2023-03-26T07:19:37.868Z,11.93
2023-03-26T07:22:06.944Z,13.17
2023-03-26T07:24:56.431Z,13.00
2023-03-26T07:27:57.919Z,8.53
2023-03-26T07:31:04.287Z,18.10
2023-03-26T07:33:54.839Z,8.83
2023-03-26T07:37:03.632Z,17.10
2023-03-26T07:39:50.472Z,18.23
2023-03-26T07:43:07.529Z,15.13
2023-03-26T07:45:57.580Z,19.13
2023-03-26T07:48:54.936Z,17.07
2023-03-26T07:51:35.231Z,22.93
2023-03-26T07:54:19.053Z,15.57
2023-03-26T07:57:37.544Z,17.13
2023-03-26T08:00:33.587Z,28.20
2023-03-26T08:03:28.556Z,17.37
2023-03-26T08:06:37.266Z,11.90
2023-03-26T08:09:24.630Z,17.43
2023-03-26T08:12:14.577Z,17.63
2023-03-26T08:14:52.998Z,20.53
2023-03-26T08:17:32.236Z,17.17
2023-03-26T08:20:20.362Z,19.73
2023-03-26T08:22:56.756Z,14.10
2023-03-26T08:25:33.026Z,17.47
2023-03-26T08:28:19.372Z,16.53
2023-03-26T08:30:48.016Z,11.70
2023-03-26T08:33:20.581Z,20.20
2023-03-26T08:35:50.786Z,19.70
2023-03-26T08:38:21.860Z,23.87
2023-03-26T08:42:06.780Z,16.27
2023-03-26T08:45:27.494Z,14.93
2023-03-26T08:48:22.022Z,17.80
2023-03-26T08:51:20.515Z,25.13
2023-03-26T08:54:41.283Z,14.93
2023-03-26T08:57:52.731Z,20.67
2023-03-26T09:00:43.730Z,17.90
2023-03-26T09:03:57.428Z,12.53
2023-03-26T09:07:17.486Z,21.03
2023-03-26T09:10:24.223Z,13.77
2023-03-26T09:13:39.589Z,20.77
2023-03-26T09:17:01.213Z,19.63
2023-03-26T09:20:15.874Z,18.13
2023-03-26T09:23:39.995Z,20.40
2023-03-26T09:26:30.618Z,11.53
2023-03-26T09:29:42.582Z,13.13
2023-03-26T09:33:12.797Z,16.30
2023-03-26T09:36:01.094Z,19.60
2023-03-26T09:38:45.652Z,17.17
2023-03-26T09:41:23.246Z,14.90
2023-03-26T09:44:38.241Z,17.40
2023-03-26T09:47:44.224Z,19.57
2023-03-26T09:50:36.471Z,19.17
2023-03-26T09:53:40.347Z,15.33
2023-03-26T09:56:21.841Z,17.20
2023-03-26T09:59:44.012Z,14.20
2023-03-26T10:02:45.640Z,21.10
2023-03-26T10:05:53.392Z,16.03
2023-03-26T10:08:47.440Z,17.53
2023-03-26T10:11:27.952Z,16.77
2023-03-26T10:14:06.461Z,16.17
2023-03-26T10:16:51.207Z,21.50
2023-03-26T10:19:47.258Z,15.20
2023-03-26T10:22:40.500Z,17.03
2023-03-26T10:25:32.165Z,22.70
2023-03-26T10:28:21.651Z,17.73
2023-03-26T10:31:26.859Z,13.97
2023-03-26T10:34:08.971Z,15.13
2023-03-26T10:37:07.726Z,12.53
2023-03-26T10:40:01.914Z,13.77
2023-03-26T10:43:01.069Z,16.20
2023-03-26T10:45:54.192Z,14.53
2023-03-26T10:48:45.988Z,17.83
2023-03-26T10:51:35.178Z,20.53
2023-03-26T10:54:14.869Z,16.63
2023-03-26T10:56:47.703Z,15.43
2023-03-26T10:59:18.533Z,14.97
2023-03-26T11:02:06.920Z,17.27
2023-03-26T11:04:52.715Z,16.07
2023-03-26T11:07:29.495Z,16.77
2023-03-26T11:10:07.777Z,14.90
2023-03-26T11:12:46.420Z,12.33
2023-03-26T11:15:26.034Z,13.47
2023-03-26T11:18:12.154Z,12.47
2023-03-26T11:20:47.606Z,9.77
2023-03-26T11:23:31.859Z,16.87
2023-03-26T11:26:14.930Z,14.13
2023-03-26T11:29:32.854Z,11.70
2023-03-26T11:32:10.443Z,13.10
2023-03-26T11:34:46.976Z,15.63
2023-03-26T11:37:24.382Z,18.90
2023-03-26T11:39:57.464Z,15.70
2023-03-26T11:42:26.673Z,16.07
2023-03-26T11:44:58.148Z,17.77
2023-03-26T11:47:35.094Z,16.73
2023-03-26T11:50:09.166Z,16.43
2023-03-26T11:52:37.548Z,18.23
2023-03-26T11:55:06.604Z,12.13
2023-03-26T11:57:37.947Z,12.30
2023-03-26T12:00:16.715Z,15.33
2023-03-26T12:02:47.352Z,19.83
2023-03-26T12:05:21.902Z,10.97
2023-03-26T12:07:59.607Z,16.47
2023-03-26T12:10:34.960Z,12.07
2023-03-26T12:13:22.381Z,14.77
2023-03-26T12:15:51.084Z,16.03
2023-03-26T12:18:26.678Z,17.50
2023-03-26T12:21:10.530Z,15.57
2023-03-26T12:23:51.707Z,19.00
2023-03-26T12:26:22.474Z,12.93
2023-03-26T12:28:52.149Z,6.65
2023-03-26T12:31:20.942Z,12.17
2023-03-26T12:34:08.184Z,16.93
2023-03-26T12:36:39.054Z,11.33
2023-03-26T12:40:07.035Z,11.67
2023-03-26T12:44:47.650Z,14.63
2023-03-26T12:45:24.137Z,12.87
2023-03-26T12:48:00.941Z,14.80
2023-03-26T12:50:48.669Z,11.37
2023-03-26T12:53:41.755Z,12.13
2023-03-26T12:56:21.770Z,15.68
2023-03-26T12:59:21.708Z,15.93
2023-03-26T13:02:03.502Z,17.53
2023-03-26T13:05:20.413Z,18.03
2023-03-26T13:08:12.841Z,16.48
2023-03-26T13:11:08.193Z,17.92
2023-03-26T13:14:02.568Z,16.40
2023-03-26T13:16:46.422Z,13.48
2023-03-26T13:19:23.944Z,12.57
2023-03-26T13:22:11.095Z,10.85
2023-03-26T13:24:55.247Z,12.48
2023-03-26T13:27:49.283Z,15.70
2023-03-26T13:30:32.776Z,12.93
2023-03-26T13:33:26.928Z,13.77
2023-03-26T13:36:21.709Z,10.73
2023-03-26T13:39:19.528Z,14.95
2023-03-26T13:42:07.092Z,12.32
2023-03-26T13:45:05.537Z,12.15
2023-03-26T13:47:40.211Z,16.27
2023-03-26T13:50:22.773Z,16.08
2023-03-26T13:52:57.137Z,13.95
2023-03-26T13:55:31.797Z,11.57
2023-03-26T13:58:07.139Z,14.15
2023-03-26T14:00:54.388Z,15.95
2023-03-26T14:03:35.583Z,12.23
2023-03-26T14:06:12.085Z,17.90
2023-03-26T14:08:45.855Z,12.05
2023-03-26T14:11:21.123Z,14.27
2023-03-26T14:13:57.583Z,12.00
2023-03-26T14:16:36.382Z,16.83
2023-03-26T14:19:37.201Z,13.40
2023-03-26T14:22:24.368Z,19.50
2023-03-26T14:25:12.424Z,13.13
2023-03-26T14:27:59.487Z,13.93
2023-03-26T14:30:59.310Z,15.27
2023-03-26T14:34:12.576Z,12.45
2023-03-26T14:37:27.743Z,14.60
2023-03-26T14:40:26.992Z,11.38
2023-03-26T14:43:17.907Z,13.68
2023-03-26T14:46:15.682Z,11.03
2023-03-26T14:49:26.503Z,15.45
2023-03-26T14:52:13.617Z,10.82
2023-03-26T14:54:47.102Z,24.38
2023-03-26T14:57:58.521Z,13.73
2023-03-26T15:01:06.962Z,19.92
2023-03-26T15:04:27.675Z,12.00
2023-03-26T15:07:38.176Z,11.23
2023-03-26T15:10:56.766Z,14.05
2023-03-26T15:14:01.917Z,9.13
2023-03-26T15:17:24.952Z,11.30
2023-03-26T15:20:37.156Z,8.37
2023-03-26T15:23:58.454Z,11.07
2023-03-26T15:27:20.512Z,15.55
2023-03-26T15:30:51.806Z,16.93
2023-03-26T15:34:00.385Z,9.10
2023-03-26T15:37:27.288Z,15.03
2023-03-26T15:40:44.689Z,11.50
2023-03-26T15:43:16.665Z,16.00
2023-03-26T15:45:50.898Z,14.07
2023-03-26T15:48:52.375Z,16.20
2023-03-26T15:51:47.073Z,14.43
2023-03-26T15:54:29.864Z,13.53
2023-03-26T15:57:20.521Z,11.63
2023-03-26T16:00:12.414Z,12.50
2023-03-26T16:02:53.727Z,14.50
2023-03-26T16:05:39.011Z,21.47
2023-03-26T16:08:23.670Z,13.43
2023-03-26T16:10:56.979Z,13.15
2023-03-26T16:13:36.635Z,7.53
2023-03-26T16:16:41.440Z,13.25
2023-03-26T16:19:55.782Z,13.30
2023-03-26T16:22:57.112Z,13.13
2023-03-26T16:25:33.205Z,13.80
2023-03-26T16:28:30.296Z,14.10
2023-03-26T16:31:36.453Z,10.03
2023-03-26T16:34:31.366Z,11.60
2023-03-26T16:37:00.947Z,9.57
2023-03-26T16:39:44.102Z,12.27
2023-03-26T16:42:39.458Z,7.97
2023-03-26T16:45:26.409Z,13.23
2023-03-26T16:48:07.786Z,14.13
2023-03-26T16:50:48.604Z,11.47
2023-03-26T16:53:41.647Z,15.60
2023-03-26T16:56:27.861Z,9.83
2023-03-26T16:59:02.286Z,13.90
2023-03-26T17:01:48.103Z,10.73
2023-03-26T17:04:23.182Z,8.30
2023-03-26T17:07:17.283Z,9.80
2023-03-26T17:10:00.528Z,8.93
2023-03-26T17:12:42.853Z,8.03
2023-03-26T17:15:37.436Z,9.13
2023-03-26T17:18:33.176Z,8.83
2023-03-26T17:21:10.176Z,11.67
2023-03-26T17:24:06.805Z,5.83
2023-03-26T17:26:59.067Z,7.03
2023-03-26T17:29:42.699Z,5.57
2023-03-26T17:32:14.987Z,7.03
2023-03-26T17:35:02.101Z,12.17
2023-03-26T17:37:47.953Z,10.03
2023-03-26T17:40:54.433Z,4.47
2023-03-26T17:43:44.431Z,8.00
2023-03-26T17:46:32.879Z,4.97
2023-03-26T17:49:09.485Z,7.73
2023-03-26T17:51:48.794Z,5.87
2023-03-26T17:54:25.274Z,6.30
2023-03-26T17:56:57.102Z,5.47
2023-03-26T17:59:29.114Z,6.23
2023-03-26T18:02:01.261Z,5.07
2023-03-26T18:04:38.599Z,8.40
2023-03-26T18:07:45.083Z,9.20
2023-03-26T18:10:38.890Z,8.80
2023-03-26T18:13:49.954Z,6.53
2023-03-26T18:16:24.272Z,6.50
2023-03-26T18:18:56.941Z,10.87
2023-03-26T18:21:35.893Z,6.07
2023-03-26T18:24:08.828Z,5.33
2023-03-26T18:26:42.093Z,7.57
2023-03-26T18:29:23.694Z,9.27
2023-03-26T18:31:57.592Z,7.63
2023-03-26T18:34:29.548Z,7.10
2023-03-26T18:37:15.670Z,6.27
2023-03-26T18:39:58.970Z,5.47
2023-03-26T18:42:30.301Z,6.10
2023-03-26T18:45:02.163Z,4.90
2023-03-26T18:47:35.149Z,4.97
2023-03-26T18:50:03.813Z,7.17
2023-03-26T18:52:33.770Z,4.37
2023-03-26T18:55:04.575Z,6.63
2023-03-26T18:57:35.077Z,8.07
2023-03-26T19:00:20.575Z,6.63
2023-03-26T19:02:54.984Z,8.33
2023-03-26T19:05:23.534Z,4.97
2023-03-26T19:07:52.316Z,5.67
2023-03-26T19:10:23.557Z,2.67
2023-03-26T19:12:59.863Z,5.60
2023-03-26T19:15:31.744Z,3.73
2023-03-26T19:18:07.228Z,10.30
2023-03-26T19:20:43.659Z,2.53
2023-03-26T19:23:17.678Z,2.30
2023-03-26T19:25:50.621Z,4.43
2023-03-26T19:28:23.611Z,3.53
2023-03-26T19:30:57.989Z,5.20
2023-03-26T19:33:36.980Z,2.23
2023-03-26T19:36:18.691Z,8.37
2023-03-26T19:38:53.371Z,2.73
2023-03-26T19:41:26.514Z,3.97
2023-03-26T19:43:58.003Z,2.37
2023-03-26T19:46:28.616Z,1.87
2023-03-26T19:48:58.911Z,2.50
2023-03-26T19:51:34.614Z,2.03
2023-03-26T19:54:13.882Z,2.33
2023-03-26T19:56:43.675Z,2.63
2023-03-26T19:59:11.982Z,3.57
2023-03-26T20:01:40.240Z,4.17
2023-03-26T20:04:13.529Z,2.70
2023-03-26T20:06:44.081Z,4.27
2023-03-26T20:09:13.887Z,2.23
2023-03-26T20:11:43.663Z,2.97
2023-03-26T20:14:15.682Z,3.47
2023-03-26T20:16:45.800Z,2.37
2023-03-26T20:19:15.548Z,5.17
2023-03-26T20:21:44.767Z,4.10
2023-03-26T20:24:17.078Z,4.07
2023-03-26T20:26:47.614Z,2.23
2023-03-26T20:29:17.464Z,4.93
2023-03-26T20:31:45.822Z,3.30
2023-03-26T20:34:19.722Z,3.40
2023-03-26T20:36:54.215Z,5.07
2023-03-26T20:39:22.985Z,3.70
2023-03-26T20:41:54.882Z,4.93
2023-03-26T20:44:23.817Z,7.90
2023-03-26T20:46:52.259Z,3.37
2023-03-26T20:49:22.146Z,5.50
2023-03-26T20:51:50.500Z,3.60
2023-03-26T20:54:22.946Z,5.67
2023-03-26T20:56:54.607Z,7.00
2023-03-26T20:59:26.394Z,4.43
2023-03-26T21:01:57.772Z,7.17
2023-03-26T21:04:27.580Z,3.37
2023-03-26T21:07:07.239Z,7.63
2023-03-26T21:09:44.785Z,9.10
2023-03-26T21:12:26.139Z,7.40
2023-03-26T21:14:55.879Z,6.13
2023-03-26T21:17:26.038Z,9.80
2023-03-26T21:19:55.152Z,7.20
2023-03-26T21:22:37.099Z,9.10
2023-03-26T21:25:22.680Z,6.00
2023-03-26T21:28:11.590Z,5.23
2023-03-26T21:30:41.019Z,4.87
2023-03-26T21:33:09.602Z,7.10
2023-03-26T21:35:38.602Z,4.87
2023-03-26T21:38:09.261Z,3.90
2023-03-26T21:40:40.596Z,8.13
2023-03-26T21:43:15.021Z,7.37
2023-03-26T21:45:45.089Z,10.70
2023-03-26T21:48:14.549Z,6.27
2023-03-26T21:50:43.845Z,5.30
2023-03-26T21:53:15.799Z,5.07
2023-03-26T21:55:58.872Z,8.10
2023-03-26T21:58:48.685Z,6.93
2023-03-26T22:01:28.695Z,10.87
2023-03-26T22:04:10.204Z,5.43
2023-03-26T22:06:47.221Z,7.03
2023-03-26T22:09:20.677Z,9.27
2023-03-26T22:11:54.700Z,13.30
2023-03-26T22:14:25.700Z,11.33
2023-03-26T22:16:53.953Z,4.70
2023-03-26T22:19:22.849Z,8.90
2023-03-26T22:21:51.942Z,7.73
2023-03-26T22:24:21.029Z,11.53
2023-03-26T22:26:49.392Z,5.13
2023-03-26T22:29:17.808Z,7.00
2023-03-26T22:31:47.446Z,9.23
2023-03-26T22:34:15.710Z,13.23
2023-03-26T22:36:43.993Z,5.50
2023-03-26T22:39:12.890Z,6.70
2023-03-26T22:41:41.496Z,9.40
2023-03-26T22:44:19.808Z,8.87
2023-03-26T22:46:51.343Z,6.57
2023-03-26T22:49:20.282Z,5.33
2023-03-26T22:51:50.079Z,7.53
2023-03-26T22:54:18.358Z,4.67
2023-03-26T22:56:46.708Z,8.17
2023-03-26T22:59:15.243Z,8.93
2023-03-26T23:01:44.265Z,7.73
2023-03-26T23:04:31.422Z,12.83
2023-03-26T23:07:01.687Z,8.73
2023-03-26T23:09:30.423Z,8.20
2023-03-26T23:11:58.877Z,5.80
2023-03-26T23:14:28.568Z,6.50
2023-03-26T23:16:57.133Z,9.67
2023-03-26T23:19:26.761Z,6.77
2023-03-26T23:21:55.006Z,7.50
2023-03-26T23:24:26.198Z,12.40
2023-03-26T23:26:54.514Z,7.03
2023-03-26T23:29:22.750Z,7.63
2023-03-26T23:31:52.733Z,4.97
2023-03-26T23:34:21.425Z,6.80
2023-03-26T23:36:52.259Z,8.77
2023-03-26T23:39:20.632Z,7.47
2023-03-26T23:41:48.971Z,4.40
2023-03-26T23:44:17.267Z,4.67
2023-03-26T23:46:45.486Z,8.00
2023-03-26T23:49:14.805Z,5.10
2023-03-26T23:51:43.140Z,7.37
2023-03-26T23:54:12.705Z,5.53
2023-03-26T23:56:41.003Z,8.70
2023-03-26T23:59:09.356Z,7.37
